METAR Formatted Surface Weather Observation
Issued by NWS

Home | Current Version | Previous Version | Text Only | Print | Product List | Glossary On
Versions: 1 2 3 4 5
311
SAUS43 KMQT 292057 COR
MTRP59
METAR KP59 292051Z AUTO 36013KT 21/19 A3010 RMK AO1 SLP189 T02110189
55004 $



USA.gov is the U.S. government's official web portal to all federal, state and local government web resources and services.